sensor_id;sensor_type;location;lat;lon;timestamp;P1;durP1;ratioP1;P2;durP2;ratioP2
51943;SDS011;37969;53.132;6.370;2023-03-14T00:02:17;41.20;;;7.28;;
51943;SDS011;37969;53.132;6.370;2023-03-14T00:04:43;34.15;;;6.53;;
51943;SDS011;37969;53.132;6.370;2023-03-14T00:07:11;36.28;;;6.57;;
51943;SDS011;37969;53.132;6.370;2023-03-14T00:09:37;39.75;;;6.63;;
51943;SDS011;37969;53.132;6.370;2023-03-14T00:12:03;32.95;;;6.18;;
51943;SDS011;37969;53.132;6.370;2023-03-14T00:14:31;40.60;;;7.18;;
51943;SDS011;37969;53.132;6.370;2023-03-14T00:16:57;43.88;;;7.38;;
51943;SDS011;37969;53.132;6.370;2023-03-14T00:19:23;35.03;;;6.28;;
51943;SDS011;37969;53.132;6.370;2023-03-14T00:21:49;37.78;;;6.60;;
51943;SDS011;37969;53.132;6.370;2023-03-14T00:24:15;30.90;;;6.32;;
51943;SDS011;37969;53.132;6.370;2023-03-14T00:26:41;27.63;;;5.90;;
51943;SDS011;37969;53.132;6.370;2023-03-14T00:29:08;36.40;;;7.57;;
51943;SDS011;37969;53.132;6.370;2023-03-14T00:31:34;29.80;;;5.50;;
51943;SDS011;37969;53.132;6.370;2023-03-14T00:34:01;32.53;;;5.88;;
51943;SDS011;37969;53.132;6.370;2023-03-14T00:36:27;28.75;;;5.13;;
51943;SDS011;37969;53.132;6.370;2023-03-14T00:38:53;35.10;;;6.30;;
51943;SDS011;37969;53.132;6.370;2023-03-14T00:41:21;36.70;;;6.40;;
51943;SDS011;37969;53.132;6.370;2023-03-14T00:43:48;34.03;;;5.82;;
51943;SDS011;37969;53.132;6.370;2023-03-14T00:46:14;35.55;;;6.63;;
51943;SDS011;37969;53.132;6.370;2023-03-14T00:48:40;39.17;;;6.30;;
51943;SDS011;37969;53.132;6.370;2023-03-14T00:51:07;27.77;;;5.20;;
51943;SDS011;37969;53.132;6.370;2023-03-14T00:53:36;30.70;;;5.85;;
51943;SDS011;37969;53.132;6.370;2023-03-14T00:56:03;31.95;;;5.93;;
51943;SDS011;37969;53.132;6.370;2023-03-14T00:58:29;34.60;;;6.40;;
51943;SDS011;37969;53.132;6.370;2023-03-14T01:00:56;26.30;;;5.43;;
51943;SDS011;37969;53.132;6.370;2023-03-14T01:03:22;30.50;;;5.72;;
51943;SDS011;37969;53.132;6.370;2023-03-14T01:05:49;24.85;;;4.88;;
51943;SDS011;37969;53.132;6.370;2023-03-14T01:08:15;30.92;;;6.07;;
51943;SDS011;37969;53.132;6.370;2023-03-14T01:10:41;37.40;;;5.35;;
51943;SDS011;37969;53.132;6.370;2023-03-14T01:13:09;31.70;;;6.18;;
51943;SDS011;37969;53.132;6.370;2023-03-14T01:15:35;32.30;;;6.20;;
51943;SDS011;37969;53.132;6.370;2023-03-14T01:18:02;24.98;;;5.03;;
51943;SDS011;37969;53.132;6.370;2023-03-14T01:20:28;28.60;;;5.13;;
51943;SDS011;37969;53.132;6.370;2023-03-14T01:22:54;27.05;;;5.25;;
51943;SDS011;37969;53.132;6.370;2023-03-14T01:25:21;31.75;;;5.50;;
51943;SDS011;37969;53.132;6.370;2023-03-14T01:27:47;26.20;;;4.55;;
51943;SDS011;37969;53.132;6.370;2023-03-14T01:30:13;24.20;;;4.93;;
51943;SDS011;37969;53.132;6.370;2023-03-14T01:32:39;23.17;;;4.20;;
51943;SDS011;37969;53.132;6.370;2023-03-14T01:35:06;24.88;;;4.85;;
51943;SDS011;37969;53.132;6.370;2023-03-14T01:37:32;26.45;;;4.72;;
51943;SDS011;37969;53.132;6.370;2023-03-14T01:39:58;34.35;;;4.80;;
51943;SDS011;37969;53.132;6.370;2023-03-14T01:42:24;16.42;;;3.83;;
51943;SDS011;37969;53.132;6.370;2023-03-14T01:44:53;21.92;;;4.32;;
51943;SDS011;37969;53.132;6.370;2023-03-14T01:47:19;25.90;;;3.40;;
51943;SDS011;37969;53.132;6.370;2023-03-14T01:49:48;19.92;;;4.03;;
51943;SDS011;37969;53.132;6.370;2023-03-14T01:52:17;19.70;;;3.85;;
51943;SDS011;37969;53.132;6.370;2023-03-14T01:54:46;19.65;;;4.22;;
51943;SDS011;37969;53.132;6.370;2023-03-14T01:57:15;20.95;;;3.60;;
51943;SDS011;37969;53.132;6.370;2023-03-14T01:59:43;11.70;;;2.65;;
51943;SDS011;37969;53.132;6.370;2023-03-14T02:02:11;23.40;;;4.07;;
51943;SDS011;37969;53.132;6.370;2023-03-14T02:04:38;25.10;;;3.95;;
51943;SDS011;37969;53.132;6.370;2023-03-14T02:07:10;21.92;;;3.55;;
51943;SDS011;37969;53.132;6.370;2023-03-14T02:09:38;21.55;;;5.03;;
51943;SDS011;37969;53.132;6.370;2023-03-14T02:12:05;21.48;;;3.47;;
51943;SDS011;37969;53.132;6.370;2023-03-14T02:14:32;20.42;;;4.00;;
51943;SDS011;37969;53.132;6.370;2023-03-14T02:16:59;18.02;;;3.78;;
51943;SDS011;37969;53.132;6.370;2023-03-14T02:19:28;19.80;;;3.80;;
51943;SDS011;37969;53.132;6.370;2023-03-14T02:22:02;20.73;;;3.28;;
51943;SDS011;37969;53.132;6.370;2023-03-14T02:24:38;16.50;;;3.50;;
51943;SDS011;37969;53.132;6.370;2023-03-14T02:27:06;18.80;;;3.80;;
51943;SDS011;37969;53.132;6.370;2023-03-14T02:29:33;19.10;;;3.72;;
51943;SDS011;37969;53.132;6.370;2023-03-14T02:32:00;20.88;;;3.53;;
51943;SDS011;37969;53.132;6.370;2023-03-14T02:34:27;22.17;;;3.65;;
51943;SDS011;37969;53.132;6.370;2023-03-14T02:36:53;20.45;;;3.67;;
51943;SDS011;37969;53.132;6.370;2023-03-14T02:39:21;18.83;;;3.45;;
51943;SDS011;37969;53.132;6.370;2023-03-14T02:41:50;19.02;;;3.85;;
51943;SDS011;37969;53.132;6.370;2023-03-14T02:44:16;17.17;;;3.58;;
51943;SDS011;37969;53.132;6.370;2023-03-14T02:46:42;12.50;;;3.97;;
51943;SDS011;37969;53.132;6.370;2023-03-14T02:49:10;14.07;;;2.42;;
51943;SDS011;37969;53.132;6.370;2023-03-14T02:51:37;17.20;;;3.00;;
51943;SDS011;37969;53.132;6.370;2023-03-14T02:54:05;20.42;;;3.50;;
51943;SDS011;37969;53.132;6.370;2023-03-14T02:56:32;19.65;;;3.50;;
51943;SDS011;37969;53.132;6.370;2023-03-14T02:58:58;12.13;;;2.97;;
51943;SDS011;37969;53.132;6.370;2023-03-14T03:01:24;22.48;;;3.88;;
51943;SDS011;37969;53.132;6.370;2023-03-14T03:03:50;11.77;;;3.13;;
51943;SDS011;37969;53.132;6.370;2023-03-14T03:06:16;21.15;;;4.22;;
51943;SDS011;37969;53.132;6.370;2023-03-14T03:08:43;20.50;;;4.45;;
51943;SDS011;37969;53.132;6.370;2023-03-14T03:11:09;20.17;;;5.00;;
51943;SDS011;37969;53.132;6.370;2023-03-14T03:13:35;22.95;;;4.60;;
51943;SDS011;37969;53.132;6.370;2023-03-14T03:16:02;17.80;;;4.07;;
51943;SDS011;37969;53.132;6.370;2023-03-14T03:18:28;22.73;;;4.25;;
51943;SDS011;37969;53.132;6.370;2023-03-14T03:20:54;16.35;;;4.55;;
51943;SDS011;37969;53.132;6.370;2023-03-14T03:23:20;20.08;;;4.95;;
51943;SDS011;37969;53.132;6.370;2023-03-14T03:25:50;25.65;;;4.10;;
51943;SDS011;37969;53.132;6.370;2023-03-14T03:30:42;17.77;;;4.78;;
51943;SDS011;37969;53.132;6.370;2023-03-14T03:33:09;28.35;;;5.47;;
51943;SDS011;37969;53.132;6.370;2023-03-14T03:35:41;24.88;;;5.82;;
51943;SDS011;37969;53.132;6.370;2023-03-14T03:38:07;25.90;;;5.78;;
51943;SDS011;37969;53.132;6.370;2023-03-14T03:40:33;27.42;;;5.75;;
51943;SDS011;37969;53.132;6.370;2023-03-14T03:43:00;23.02;;;5.65;;
51943;SDS011;37969;53.132;6.370;2023-03-14T03:45:26;31.00;;;5.90;;
51943;SDS011;37969;53.132;6.370;2023-03-14T03:47:52;29.65;;;5.65;;
51943;SDS011;37969;53.132;6.370;2023-03-14T03:50:18;34.70;;;7.30;;
51943;SDS011;37969;53.132;6.370;2023-03-14T03:52:44;26.30;;;5.43;;
51943;SDS011;37969;53.132;6.370;2023-03-14T03:55:11;30.05;;;6.95;;
51943;SDS011;37969;53.132;6.370;2023-03-14T03:57:37;27.50;;;5.00;;
51943;SDS011;37969;53.132;6.370;2023-03-14T04:00:03;23.45;;;5.78;;
51943;SDS011;37969;53.132;6.370;2023-03-14T04:02:30;30.02;;;5.97;;
51943;SDS011;37969;53.132;6.370;2023-03-14T04:04:57;30.35;;;6.28;;
51943;SDS011;37969;53.132;6.370;2023-03-14T04:07:23;27.52;;;6.95;;
51943;SDS011;37969;53.132;6.370;2023-03-14T04:09:49;31.38;;;6.50;;
51943;SDS011;37969;53.132;6.370;2023-03-14T04:12:15;35.72;;;6.38;;
51943;SDS011;37969;53.132;6.370;2023-03-14T04:14:41;31.60;;;6.78;;
51943;SDS011;37969;53.132;6.370;2023-03-14T04:17:08;39.55;;;8.40;;
51943;SDS011;37969;53.132;6.370;2023-03-14T04:19:34;31.42;;;6.50;;
51943;SDS011;37969;53.132;6.370;2023-03-14T04:22:00;35.83;;;9.02;;
51943;SDS011;37969;53.132;6.370;2023-03-14T04:24:26;36.65;;;7.13;;
51943;SDS011;37969;53.132;6.370;2023-03-14T04:26:52;31.60;;;7.82;;
51943;SDS011;37969;53.132;6.370;2023-03-14T04:29:18;28.73;;;8.05;;
51943;SDS011;37969;53.132;6.370;2023-03-14T04:31:44;38.83;;;10.50;;
51943;SDS011;37969;53.132;6.370;2023-03-14T04:34:11;38.75;;;11.20;;
51943;SDS011;37969;53.132;6.370;2023-03-14T04:36:37;36.80;;;10.40;;
51943;SDS011;37969;53.132;6.370;2023-03-14T04:39:03;33.92;;;12.18;;
51943;SDS011;37969;53.132;6.370;2023-03-14T04:41:29;33.75;;;11.80;;
51943;SDS011;37969;53.132;6.370;2023-03-14T04:43:55;31.55;;;12.10;;
51943;SDS011;37969;53.132;6.370;2023-03-14T04:46:21;30.10;;;12.18;;
51943;SDS011;37969;53.132;6.370;2023-03-14T04:48:48;40.60;;;13.57;;
51943;SDS011;37969;53.132;6.370;2023-03-14T04:51:14;38.65;;;13.02;;
51943;SDS011;37969;53.132;6.370;2023-03-14T04:53:40;27.20;;;13.77;;
51943;SDS011;37969;53.132;6.370;2023-03-14T04:56:06;26.75;;;13.07;;
51943;SDS011;37969;53.132;6.370;2023-03-14T04:58:32;34.85;;;13.05;;
51943;SDS011;37969;53.132;6.370;2023-03-14T05:01:02;31.58;;;13.48;;
51943;SDS011;37969;53.132;6.370;2023-03-14T05:03:29;36.00;;;14.02;;
51943;SDS011;37969;53.132;6.370;2023-03-14T05:05:55;31.50;;;13.55;;
51943;SDS011;37969;53.132;6.370;2023-03-14T05:08:22;25.15;;;11.32;;
51943;SDS011;37969;53.132;6.370;2023-03-14T05:10:52;27.58;;;11.23;;
51943;SDS011;37969;53.132;6.370;2023-03-14T05:13:18;27.55;;;9.85;;
51943;SDS011;37969;53.132;6.370;2023-03-14T05:15:44;28.58;;;9.95;;
51943;SDS011;37969;53.132;6.370;2023-03-14T05:18:11;27.10;;;10.88;;
51943;SDS011;37969;53.132;6.370;2023-03-14T05:20:37;23.92;;;9.55;;
51943;SDS011;37969;53.132;6.370;2023-03-14T05:23:03;26.27;;;9.75;;
51943;SDS011;37969;53.132;6.370;2023-03-14T05:25:29;10.43;;;4.90;;
51943;SDS011;37969;53.132;6.370;2023-03-14T05:27:55;13.45;;;6.28;;
51943;SDS011;37969;53.132;6.370;2023-03-14T05:30:22;15.65;;;6.35;;
51943;SDS011;37969;53.132;6.370;2023-03-14T05:32:48;16.90;;;7.55;;
51943;SDS011;37969;53.132;6.370;2023-03-14T05:35:14;25.27;;;8.75;;
51943;SDS011;37969;53.132;6.370;2023-03-14T05:37:40;22.23;;;8.82;;
51943;SDS011;37969;53.132;6.370;2023-03-14T05:40:06;19.02;;;9.05;;
51943;SDS011;37969;53.132;6.370;2023-03-14T05:42:33;29.15;;;9.85;;
51943;SDS011;37969;53.132;6.370;2023-03-14T05:45:00;23.40;;;8.48;;
51943;SDS011;37969;53.132;6.370;2023-03-14T05:47:26;19.25;;;7.50;;
51943;SDS011;37969;53.132;6.370;2023-03-14T05:49:52;17.20;;;7.40;;
51943;SDS011;37969;53.132;6.370;2023-03-14T05:52:18;17.20;;;8.02;;
51943;SDS011;37969;53.132;6.370;2023-03-14T05:54:44;14.90;;;7.13;;
51943;SDS011;37969;53.132;6.370;2023-03-14T05:57:10;20.50;;;9.25;;
51943;SDS011;37969;53.132;6.370;2023-03-14T05:59:36;16.55;;;7.55;;
51943;SDS011;37969;53.132;6.370;2023-03-14T06:02:03;12.30;;;6.72;;
51943;SDS011;37969;53.132;6.370;2023-03-14T06:04:29;12.88;;;6.50;;
51943;SDS011;37969;53.132;6.370;2023-03-14T06:06:55;13.05;;;6.53;;
51943;SDS011;37969;53.132;6.370;2023-03-14T06:09:21;13.30;;;6.65;;
51943;SDS011;37969;53.132;6.370;2023-03-14T06:11:48;11.73;;;5.93;;
51943;SDS011;37969;53.132;6.370;2023-03-14T06:14:14;12.15;;;6.45;;
51943;SDS011;37969;53.132;6.370;2023-03-14T06:16:40;8.18;;;4.72;;
51943;SDS011;37969;53.132;6.370;2023-03-14T06:19:07;18.98;;;10.65;;
51943;SDS011;37969;53.132;6.370;2023-03-14T06:21:33;23.85;;;15.55;;
51943;SDS011;37969;53.132;6.370;2023-03-14T06:23:59;23.33;;;10.63;;
51943;SDS011;37969;53.132;6.370;2023-03-14T06:26:25;16.17;;;9.63;;
51943;SDS011;37969;53.132;6.370;2023-03-14T06:28:51;9.80;;;4.97;;
51943;SDS011;37969;53.132;6.370;2023-03-14T06:31:19;8.10;;;1.60;;
51943;SDS011;37969;53.132;6.370;2023-03-14T06:33:45;12.13;;;1.55;;
51943;SDS011;37969;53.132;6.370;2023-03-14T06:36:11;17.02;;;2.13;;
51943;SDS011;37969;53.132;6.370;2023-03-14T06:38:37;14.88;;;2.08;;
51943;SDS011;37969;53.132;6.370;2023-03-14T06:41:04;15.82;;;2.40;;
51943;SDS011;37969;53.132;6.370;2023-03-14T06:43:31;20.75;;;3.03;;
51943;SDS011;37969;53.132;6.370;2023-03-14T06:45:57;17.15;;;2.33;;
51943;SDS011;37969;53.132;6.370;2023-03-14T06:48:23;21.08;;;2.72;;
51943;SDS011;37969;53.132;6.370;2023-03-14T06:50:49;22.50;;;2.60;;
51943;SDS011;37969;53.132;6.370;2023-03-14T06:53:15;16.75;;;2.17;;
51943;SDS011;37969;53.132;6.370;2023-03-14T06:55:41;13.65;;;2.28;;
51943;SDS011;37969;53.132;6.370;2023-03-14T06:58:08;13.27;;;1.90;;
51943;SDS011;37969;53.132;6.370;2023-03-14T07:00:34;22.75;;;2.05;;
51943;SDS011;37969;53.132;6.370;2023-03-14T07:03:01;16.00;;;2.00;;
51943;SDS011;37969;53.132;6.370;2023-03-14T07:05:27;12.82;;;1.85;;
51943;SDS011;37969;53.132;6.370;2023-03-14T07:07:53;17.65;;;1.80;;
51943;SDS011;37969;53.132;6.370;2023-03-14T07:10:19;13.52;;;1.40;;
51943;SDS011;37969;53.132;6.370;2023-03-14T07:12:46;14.85;;;1.60;;
51943;SDS011;37969;53.132;6.370;2023-03-14T07:15:12;13.25;;;1.83;;
51943;SDS011;37969;53.132;6.370;2023-03-14T07:17:38;19.55;;;1.55;;
51943;SDS011;37969;53.132;6.370;2023-03-14T07:20:04;11.10;;;0.88;;
51943;SDS011;37969;53.132;6.370;2023-03-14T07:22:32;7.32;;;1.27;;
51943;SDS011;37969;53.132;6.370;2023-03-14T07:24:58;7.32;;;1.42;;
51943;SDS011;37969;53.132;6.370;2023-03-14T07:27:24;5.53;;;0.90;;
51943;SDS011;37969;53.132;6.370;2023-03-14T07:29:50;8.02;;;1.20;;
51943;SDS011;37969;53.132;6.370;2023-03-14T07:32:17;6.10;;;1.10;;
51943;SDS011;37969;53.132;6.370;2023-03-14T07:34:43;6.97;;;0.63;;
51943;SDS011;37969;53.132;6.370;2023-03-14T07:37:09;6.35;;;1.10;;
51943;SDS011;37969;53.132;6.370;2023-03-14T07:39:35;12.85;;;0.93;;
51943;SDS011;37969;53.132;6.370;2023-03-14T07:42:02;8.82;;;0.98;;
51943;SDS011;37969;53.132;6.370;2023-03-14T07:44:28;6.13;;;1.45;;
51943;SDS011;37969;53.132;6.370;2023-03-14T07:46:54;7.15;;;0.75;;
51943;SDS011;37969;53.132;6.370;2023-03-14T07:49:20;9.07;;;1.13;;
51943;SDS011;37969;53.132;6.370;2023-03-14T07:51:47;10.38;;;1.35;;
51943;SDS011;37969;53.132;6.370;2023-03-14T07:54:13;9.45;;;1.20;;
51943;SDS011;37969;53.132;6.370;2023-03-14T07:56:40;13.88;;;1.42;;
51943;SDS011;37969;53.132;6.370;2023-03-14T07:59:06;10.38;;;1.10;;
51943;SDS011;37969;53.132;6.370;2023-03-14T08:01:32;17.50;;;1.42;;
51943;SDS011;37969;53.132;6.370;2023-03-14T08:03:59;9.95;;;1.58;;
51943;SDS011;37969;53.132;6.370;2023-03-14T08:06:25;8.10;;;1.50;;
51943;SDS011;37969;53.132;6.370;2023-03-14T08:08:51;9.23;;;1.40;;
51943;SDS011;37969;53.132;6.370;2023-03-14T08:11:17;13.23;;;1.60;;
51943;SDS011;37969;53.132;6.370;2023-03-14T08:13:44;15.07;;;1.80;;
51943;SDS011;37969;53.132;6.370;2023-03-14T08:16:16;11.75;;;1.60;;
51943;SDS011;37969;53.132;6.370;2023-03-14T08:18:42;9.55;;;1.35;;
51943;SDS011;37969;53.132;6.370;2023-03-14T08:21:09;14.32;;;1.33;;
51943;SDS011;37969;53.132;6.370;2023-03-14T08:23:35;8.80;;;1.25;;
51943;SDS011;37969;53.132;6.370;2023-03-14T08:26:01;7.53;;;1.50;;
51943;SDS011;37969;53.132;6.370;2023-03-14T08:28:28;12.30;;;1.13;;
51943;SDS011;37969;53.132;6.370;2023-03-14T08:30:56;9.82;;;1.50;;
51943;SDS011;37969;53.132;6.370;2023-03-14T08:33:23;7.80;;;1.40;;
51943;SDS011;37969;53.132;6.370;2023-03-14T08:35:52;12.00;;;1.60;;
51943;SDS011;37969;53.132;6.370;2023-03-14T08:40:45;10.00;;;1.60;;
51943;SDS011;37969;53.132;6.370;2023-03-14T08:43:11;11.07;;;1.92;;
51943;SDS011;37969;53.132;6.370;2023-03-14T08:45:37;12.65;;;2.33;;
51943;SDS011;37969;53.132;6.370;2023-03-14T08:48:03;20.63;;;2.60;;
51943;SDS011;37969;53.132;6.370;2023-03-14T08:50:30;13.20;;;1.95;;
51943;SDS011;37969;53.132;6.370;2023-03-14T08:52:56;19.35;;;2.05;;
51943;SDS011;37969;53.132;6.370;2023-03-14T08:55:25;13.50;;;1.85;;
51943;SDS011;37969;53.132;6.370;2023-03-14T08:57:52;12.48;;;2.20;;
51943;SDS011;37969;53.132;6.370;2023-03-14T09:00:19;18.40;;;2.83;;
51943;SDS011;37969;53.132;6.370;2023-03-14T09:02:45;18.52;;;2.70;;
51943;SDS011;37969;53.132;6.370;2023-03-14T09:05:12;19.92;;;2.88;;
51943;SDS011;37969;53.132;6.370;2023-03-14T09:07:38;23.75;;;2.80;;
51943;SDS011;37969;53.132;6.370;2023-03-14T09:10:05;27.30;;;3.13;;
51943;SDS011;37969;53.132;6.370;2023-03-14T09:12:31;22.77;;;3.33;;
51943;SDS011;37969;53.132;6.370;2023-03-14T09:14:58;23.77;;;4.18;;
51943;SDS011;37969;53.132;6.370;2023-03-14T09:17:24;34.70;;;4.50;;
51943;SDS011;37969;53.132;6.370;2023-03-14T09:19:50;25.95;;;3.67;;
51943;SDS011;37969;53.132;6.370;2023-03-14T09:22:16;23.38;;;3.45;;
51943;SDS011;37969;53.132;6.370;2023-03-14T09:24:42;27.67;;;4.38;;
51943;SDS011;37969;53.132;6.370;2023-03-14T09:27:08;32.05;;;4.55;;
51943;SDS011;37969;53.132;6.370;2023-03-14T09:29:35;33.70;;;3.72;;
51943;SDS011;37969;53.132;6.370;2023-03-14T09:32:01;29.08;;;4.50;;
51943;SDS011;37969;53.132;6.370;2023-03-14T09:34:27;23.85;;;3.85;;
51943;SDS011;37969;53.132;6.370;2023-03-14T09:36:53;36.25;;;4.75;;
51943;SDS011;37969;53.132;6.370;2023-03-14T09:39:19;30.15;;;3.80;;
51943;SDS011;37969;53.132;6.370;2023-03-14T09:41:46;32.20;;;3.92;;
51943;SDS011;37969;53.132;6.370;2023-03-14T09:44:14;27.48;;;3.78;;
51943;SDS011;37969;53.132;6.370;2023-03-14T09:46:42;25.73;;;3.80;;
51943;SDS011;37969;53.132;6.370;2023-03-14T09:49:11;28.30;;;4.90;;
51943;SDS011;37969;53.132;6.370;2023-03-14T09:51:37;30.80;;;5.00;;
51943;SDS011;37969;53.132;6.370;2023-03-14T09:54:04;28.67;;;4.63;;
51943;SDS011;37969;53.132;6.370;2023-03-14T09:56:31;31.70;;;5.35;;
51943;SDS011;37969;53.132;6.370;2023-03-14T09:58:58;31.30;;;4.57;;
51943;SDS011;37969;53.132;6.370;2023-03-14T10:01:27;38.05;;;6.55;;
51943;SDS011;37969;53.132;6.370;2023-03-14T10:03:54;35.53;;;4.68;;
51943;SDS011;37969;53.132;6.370;2023-03-14T10:06:21;36.45;;;4.28;;
51943;SDS011;37969;53.132;6.370;2023-03-14T10:08:49;31.77;;;4.72;;
51943;SDS011;37969;53.132;6.370;2023-03-14T10:11:16;30.25;;;4.38;;
51943;SDS011;37969;53.132;6.370;2023-03-14T10:14:01;23.67;;;3.60;;
51943;SDS011;37969;53.132;6.370;2023-03-14T10:16:31;25.10;;;4.60;;
51943;SDS011;37969;53.132;6.370;2023-03-14T10:19:02;23.35;;;3.78;;
51943;SDS011;37969;53.132;6.370;2023-03-14T10:21:29;32.08;;;3.72;;
51943;SDS011;37969;53.132;6.370;2023-03-14T10:24:22;27.60;;;3.53;;
51943;SDS011;37969;53.132;6.370;2023-03-14T10:26:48;19.90;;;3.15;;
51943;SDS011;37969;53.132;6.370;2023-03-14T10:29:15;16.63;;;3.45;;
51943;SDS011;37969;53.132;6.370;2023-03-14T10:31:50;22.63;;;3.08;;
51943;SDS011;37969;53.132;6.370;2023-03-14T10:34:21;24.95;;;3.72;;
51943;SDS011;37969;53.132;6.370;2023-03-14T10:36:51;25.45;;;3.03;;
51943;SDS011;37969;53.132;6.370;2023-03-14T10:39:25;15.65;;;2.65;;
51943;SDS011;37969;53.132;6.370;2023-03-14T10:41:54;16.23;;;2.78;;
51943;SDS011;37969;53.132;6.370;2023-03-14T10:44:23;19.00;;;2.70;;
51943;SDS011;37969;53.132;6.370;2023-03-14T10:46:56;15.73;;;2.95;;
51943;SDS011;37969;53.132;6.370;2023-03-14T10:49:26;25.20;;;2.95;;
51943;SDS011;37969;53.132;6.370;2023-03-14T10:54:29;12.68;;;2.17;;
51943;SDS011;37969;53.132;6.370;2023-03-14T10:56:56;15.80;;;2.13;;
51943;SDS011;37969;53.132;6.370;2023-03-14T10:59:22;19.63;;;2.60;;
51943;SDS011;37969;53.132;6.370;2023-03-14T11:01:55;12.43;;;1.95;;
51943;SDS011;37969;53.132;6.370;2023-03-14T11:04:30;8.15;;;1.70;;
51943;SDS011;37969;53.132;6.370;2023-03-14T11:09:41;15.02;;;2.38;;
51943;SDS011;37969;53.132;6.370;2023-03-14T11:12:30;14.00;;;2.42;;
51943;SDS011;37969;53.132;6.370;2023-03-14T11:15:00;14.75;;;2.28;;
51943;SDS011;37969;53.132;6.370;2023-03-14T11:17:30;14.98;;;1.80;;
51943;SDS011;37969;53.132;6.370;2023-03-14T11:22:44;13.18;;;2.42;;
51943;SDS011;37969;53.132;6.370;2023-03-14T11:25:26;17.15;;;2.20;;
51943;SDS011;37969;53.132;6.370;2023-03-14T11:33:03;12.20;;;2.00;;
51943;SDS011;37969;53.132;6.370;2023-03-14T11:35:39;10.70;;;1.80;;
51943;SDS011;37969;53.132;6.370;2023-03-14T11:40:35;10.98;;;1.70;;
51943;SDS011;37969;53.132;6.370;2023-03-14T11:43:06;17.05;;;2.17;;
51943;SDS011;37969;53.132;6.370;2023-03-14T11:45:37;11.60;;;1.80;;
51943;SDS011;37969;53.132;6.370;2023-03-14T11:48:07;4.65;;;1.33;;
51943;SDS011;37969;53.132;6.370;2023-03-14T11:50:36;9.18;;;1.63;;
51943;SDS011;37969;53.132;6.370;2023-03-14T11:53:04;7.97;;;1.15;;
51943;SDS011;37969;53.132;6.370;2023-03-14T11:55:33;11.60;;;1.40;;
51943;SDS011;37969;53.132;6.370;2023-03-14T11:58:02;8.23;;;1.80;;
51943;SDS011;37969;53.132;6.370;2023-03-14T12:00:29;6.72;;;1.33;;
51943;SDS011;37969;53.132;6.370;2023-03-14T12:05:28;8.75;;;1.77;;
51943;SDS011;37969;53.132;6.370;2023-03-14T12:10:23;10.02;;;1.98;;
51943;SDS011;37969;53.132;6.370;2023-03-14T12:12:50;10.50;;;2.30;;
51943;SDS011;37969;53.132;6.370;2023-03-14T12:15:22;13.00;;;1.95;;
51943;SDS011;37969;53.132;6.370;2023-03-14T12:17:54;8.25;;;1.48;;
51943;SDS011;37969;53.132;6.370;2023-03-14T12:20:22;8.07;;;1.70;;
51943;SDS011;37969;53.132;6.370;2023-03-14T12:22:50;10.65;;;2.17;;
51943;SDS011;37969;53.132;6.370;2023-03-14T12:25:18;10.50;;;2.22;;
51943;SDS011;37969;53.132;6.370;2023-03-14T12:30:28;13.07;;;1.88;;
51943;SDS011;37969;53.132;6.370;2023-03-14T12:33:10;9.50;;;1.80;;
51943;SDS011;37969;53.132;6.370;2023-03-14T12:35:41;13.15;;;1.60;;
51943;SDS011;37969;53.132;6.370;2023-03-14T12:38:09;11.00;;;1.63;;
51943;SDS011;37969;53.132;6.370;2023-03-14T12:40:39;6.07;;;1.50;;
51943;SDS011;37969;53.132;6.370;2023-03-14T12:43:23;9.15;;;1.60;;
51943;SDS011;37969;53.132;6.370;2023-03-14T12:46:15;9.60;;;1.80;;
51943;SDS011;37969;53.132;6.370;2023-03-14T12:48:45;15.93;;;2.50;;
51943;SDS011;37969;53.132;6.370;2023-03-14T12:51:17;11.38;;;1.80;;
51943;SDS011;37969;53.132;6.370;2023-03-14T13:01:14;9.02;;;1.70;;
51943;SDS011;37969;53.132;6.370;2023-03-14T13:03:45;9.23;;;1.75;;
51943;SDS011;37969;53.132;6.370;2023-03-14T13:06:12;14.82;;;2.03;;
51943;SDS011;37969;53.132;6.370;2023-03-14T13:08:42;15.68;;;2.45;;
51943;SDS011;37969;53.132;6.370;2023-03-14T13:11:12;6.45;;;1.80;;
51943;SDS011;37969;53.132;6.370;2023-03-14T13:13:42;5.25;;;1.30;;
51943;SDS011;37969;53.132;6.370;2023-03-14T13:16:09;9.63;;;1.83;;
51943;SDS011;37969;53.132;6.370;2023-03-14T13:18:37;10.13;;;1.45;;
51943;SDS011;37969;53.132;6.370;2023-03-14T13:21:17;7.65;;;1.60;;
51943;SDS011;37969;53.132;6.370;2023-03-14T13:23:56;7.22;;;1.40;;
51943;SDS011;37969;53.132;6.370;2023-03-14T13:26:24;8.30;;;1.42;;
51943;SDS011;37969;53.132;6.370;2023-03-14T13:28:50;4.68;;;1.50;;
51943;SDS011;37969;53.132;6.370;2023-03-14T13:31:24;12.73;;;2.10;;
51943;SDS011;37969;53.132;6.370;2023-03-14T13:33:57;11.50;;;2.30;;
51943;SDS011;37969;53.132;6.370;2023-03-14T13:36:24;8.40;;;1.55;;
51943;SDS011;37969;53.132;6.370;2023-03-14T13:38:55;13.07;;;2.10;;
51943;SDS011;37969;53.132;6.370;2023-03-14T13:41:22;7.47;;;1.65;;
51943;SDS011;37969;53.132;6.370;2023-03-14T13:43:49;12.80;;;1.92;;
51943;SDS011;37969;53.132;6.370;2023-03-14T13:46:16;10.60;;;1.83;;
51943;SDS011;37969;53.132;6.370;2023-03-14T13:48:44;10.98;;;1.80;;
51943;SDS011;37969;53.132;6.370;2023-03-14T13:51:12;9.57;;;1.67;;
51943;SDS011;37969;53.132;6.370;2023-03-14T13:53:44;11.65;;;2.22;;
51943;SDS011;37969;53.132;6.370;2023-03-14T13:56:10;12.10;;;2.05;;
51943;SDS011;37969;53.132;6.370;2023-03-14T13:58:37;9.57;;;1.95;;
51943;SDS011;37969;53.132;6.370;2023-03-14T14:01:05;10.15;;;1.20;;
51943;SDS011;37969;53.132;6.370;2023-03-14T14:03:32;7.00;;;1.30;;
51943;SDS011;37969;53.132;6.370;2023-03-14T14:06:00;10.75;;;1.33;;
51943;SDS011;37969;53.132;6.370;2023-03-14T14:08:26;14.57;;;1.60;;
51943;SDS011;37969;53.132;6.370;2023-03-14T14:10:54;8.68;;;1.65;;
51943;SDS011;37969;53.132;6.370;2023-03-14T14:13:22;12.82;;;1.80;;
51943;SDS011;37969;53.132;6.370;2023-03-14T14:15:51;9.38;;;1.73;;
51943;SDS011;37969;53.132;6.370;2023-03-14T14:18:18;7.97;;;1.52;;
51943;SDS011;37969;53.132;6.370;2023-03-14T14:20:46;20.33;;;2.25;;
51943;SDS011;37969;53.132;6.370;2023-03-14T14:23:15;20.95;;;2.15;;
51943;SDS011;37969;53.132;6.370;2023-03-14T14:25:44;13.18;;;1.60;;
51943;SDS011;37969;53.132;6.370;2023-03-14T14:28:23;12.13;;;1.90;;
51943;SDS011;37969;53.132;6.370;2023-03-14T14:31:03;12.27;;;2.30;;
51943;SDS011;37969;53.132;6.370;2023-03-14T14:33:37;18.92;;;2.20;;
51943;SDS011;37969;53.132;6.370;2023-03-14T14:36:05;10.52;;;2.05;;
51943;SDS011;37969;53.132;6.370;2023-03-14T14:38:31;12.52;;;1.65;;
51943;SDS011;37969;53.132;6.370;2023-03-14T14:40:59;11.85;;;2.15;;
51943;SDS011;37969;53.132;6.370;2023-03-14T14:43:28;10.30;;;1.60;;
51943;SDS011;37969;53.132;6.370;2023-03-14T14:45:54;7.72;;;1.23;;
51943;SDS011;37969;53.132;6.370;2023-03-14T14:48:22;7.93;;;1.90;;
51943;SDS011;37969;53.132;6.370;2023-03-14T14:50:50;9.40;;;1.63;;
51943;SDS011;37969;53.132;6.370;2023-03-14T14:53:24;7.00;;;1.73;;
51943;SDS011;37969;53.132;6.370;2023-03-14T14:55:53;8.65;;;2.10;;
51943;SDS011;37969;53.132;6.370;2023-03-14T14:58:24;12.40;;;1.88;;
51943;SDS011;37969;53.132;6.370;2023-03-14T15:00:53;11.63;;;2.00;;
51943;SDS011;37969;53.132;6.370;2023-03-14T15:03:20;7.93;;;1.67;;
51943;SDS011;37969;53.132;6.370;2023-03-14T15:05:46;11.02;;;1.38;;
51943;SDS011;37969;53.132;6.370;2023-03-14T15:08:12;6.82;;;1.40;;
51943;SDS011;37969;53.132;6.370;2023-03-14T15:10:38;10.90;;;1.67;;
51943;SDS011;37969;53.132;6.370;2023-03-14T15:13:05;14.23;;;1.88;;
51943;SDS011;37969;53.132;6.370;2023-03-14T15:15:31;23.45;;;2.67;;